createdAt,value
2023-03-13T00:00:59.855Z,13.00
2023-03-13T00:07:42.134Z,14.15
2023-03-13T00:14:24.614Z,17.48
2023-03-13T00:21:08.917Z,16.45
2023-03-13T00:27:52.338Z,12.57
2023-03-13T00:34:34.616Z,20.60
2023-03-13T00:41:20.358Z,13.15
2023-03-13T00:48:02.978Z,15.65
2023-03-13T00:54:45.481Z,18.85
2023-03-13T01:01:33.668Z,15.05
2023-03-13T01:08:16.223Z,10.35
2023-03-13T01:14:58.603Z,14.57
2023-03-13T01:21:42.896Z,13.88
2023-03-13T01:28:26.507Z,12.82
2023-03-13T01:35:10.008Z,13.50
2023-03-13T01:41:53.240Z,19.65
2023-03-13T01:49:10.218Z,11.45
2023-03-13T01:56:25.491Z,13.63
2023-03-13T02:03:12.408Z,13.43
2023-03-13T02:09:56.969Z,13.20
2023-03-13T02:16:40.644Z,12.35
2023-03-13T02:23:33.290Z,14.20
2023-03-13T02:30:16.182Z,15.57
2023-03-13T02:37:00.730Z,10.68
2023-03-13T02:43:43.498Z,11.95
2023-03-13T02:50:25.810Z,12.25
2023-03-13T02:57:08.205Z,10.82
2023-03-13T03:03:51.092Z,9.73
2023-03-13T03:10:38.994Z,11.70
2023-03-13T03:17:21.647Z,7.63
2023-03-13T03:24:04.351Z,8.95
2023-03-13T03:30:46.800Z,8.02
2023-03-13T03:37:29.379Z,10.50
2023-03-13T03:44:12.515Z,7.78
2023-03-13T03:51:24.265Z,7.07
2023-03-13T03:58:07.317Z,9.18
2023-03-13T04:05:10.045Z,11.05
2023-03-13T04:11:54.756Z,8.95
2023-03-13T04:18:37.490Z,8.00
2023-03-13T04:25:20.658Z,6.57
2023-03-13T04:32:06.092Z,5.22
2023-03-13T04:39:25.058Z,1.88
2023-03-13T04:46:14.284Z,4.30
2023-03-13T04:53:14.787Z,1.95
2023-03-13T05:00:10.246Z,3.60
2023-03-13T05:07:01.949Z,2.30
2023-03-13T05:14:16.156Z,0.90
2023-03-13T05:21:21.499Z,0.80
2023-03-13T05:28:39.285Z,2.05
2023-03-13T05:35:30.990Z,1.42
2023-03-13T05:42:31.646Z,3.58
2023-03-13T05:49:18.895Z,1.63
2023-03-13T05:56:19.712Z,1.00
2023-03-13T06:03:22.331Z,1.90
2023-03-13T06:10:07.576Z,2.20
2023-03-13T06:16:50.561Z,1.15
2023-03-13T06:23:37.084Z,2.30
2023-03-13T06:30:19.460Z,2.53
2023-03-13T06:37:01.762Z,1.20
2023-03-13T06:43:44.330Z,2.60
2023-03-13T06:50:26.599Z,0.70
2023-03-13T06:57:08.937Z,1.48
2023-03-13T07:03:51.321Z,1.33
2023-03-13T07:10:33.656Z,1.20
2023-03-13T07:17:16.150Z,0.75
2023-03-13T07:23:58.726Z,0.77
2023-03-13T07:30:41.033Z,3.50
2023-03-13T07:37:23.598Z,2.35
2023-03-13T07:44:06.021Z,1.92
2023-03-13T07:50:48.888Z,0.82
2023-03-13T07:57:31.299Z,1.20
2023-03-13T08:04:14.471Z,0.85
2023-03-13T08:11:05.169Z,1.50
2023-03-13T08:17:47.577Z,2.92
2023-03-13T08:24:30.041Z,3.33
2023-03-13T08:31:16.874Z,2.10
2023-03-13T08:37:59.247Z,0.80
2023-03-13T08:44:41.804Z,3.15
2023-03-13T08:51:26.786Z,3.42
2023-03-13T08:58:09.115Z,3.72
2023-03-13T09:04:51.430Z,2.60
2023-03-13T09:11:35.823Z,4.80
2023-03-13T09:18:18.127Z,3.47
2023-03-13T09:25:00.431Z,5.13
2023-03-13T09:31:42.821Z,3.20
2023-03-13T09:38:25.157Z,1.65
2023-03-13T09:45:16.044Z,3.45
2023-03-13T09:52:19.568Z,2.45
2023-03-13T09:59:24.444Z,2.80
2023-03-13T10:06:15.773Z,6.82
2023-03-13T10:13:19.114Z,2.28
2023-03-13T10:20:08.421Z,4.97
2023-03-13T10:26:50.711Z,5.07
2023-03-13T10:33:37.321Z,3.03
2023-03-13T10:40:26.424Z,4.57
2023-03-13T10:47:13.055Z,1.80
2023-03-13T10:53:55.348Z,4.90
2023-03-13T11:00:41.321Z,6.43
2023-03-13T11:07:26.962Z,5.97
2023-03-13T11:14:13.700Z,4.57
2023-03-13T11:20:59.171Z,3.58
2023-03-13T11:28:04.444Z,12.50
2023-03-13T11:34:59.346Z,2.78
2023-03-13T11:42:01.661Z,7.25
2023-03-13T11:48:50.581Z,3.25
2023-03-13T11:56:07.104Z,2.13
2023-03-13T12:02:55.154Z,3.35
2023-03-13T12:09:51.744Z,2.50
2023-03-13T12:16:39.886Z,10.82
2023-03-13T12:23:42.188Z,5.82
2023-03-13T12:30:48.191Z,4.18
2023-03-13T12:37:33.345Z,4.85
2023-03-13T12:44:19.081Z,2.50
2023-03-13T12:51:36.918Z,5.63
2023-03-13T12:58:26.349Z,5.00
2023-03-13T13:05:19.559Z,2.33
2023-03-13T13:12:23.555Z,5.28
2023-03-13T13:19:41.187Z,4.45
2023-03-13T13:26:37.285Z,4.38
2023-03-13T13:33:20.323Z,2.30
2023-03-13T13:40:23.508Z,4.65
2023-03-13T13:47:24.577Z,4.38
2023-03-13T13:54:12.929Z,3.38
2023-03-13T14:01:03.840Z,2.75
2023-03-13T14:07:52.101Z,4.60
2023-03-13T14:14:34.422Z,4.13
2023-03-13T14:21:22.994Z,5.15
2023-03-13T14:28:05.456Z,3.65
2023-03-13T14:34:47.765Z,2.05
2023-03-13T14:41:42.296Z,3.72
2023-03-13T14:48:31.900Z,5.70
2023-03-13T14:55:23.543Z,3.55
2023-03-13T15:02:23.161Z,4.43
2023-03-13T15:09:18.572Z,9.80
2023-03-13T15:16:01.779Z,4.85
2023-03-13T15:22:46.134Z,1.45
2023-03-13T15:29:28.411Z,3.33
2023-03-13T15:36:11.633Z,2.08
2023-03-13T15:42:55.000Z,4.95
2023-03-13T15:49:37.282Z,3.83
2023-03-13T15:56:22.931Z,6.10
2023-03-13T16:03:05.496Z,1.65
2023-03-13T16:09:48.190Z,2.72
2023-03-13T16:16:37.259Z,5.90
2023-03-13T16:23:21.179Z,2.83
2023-03-13T16:30:06.938Z,5.88
2023-03-13T16:36:49.173Z,3.40
2023-03-13T16:43:31.518Z,2.60
2023-03-13T16:50:23.289Z,2.05
2023-03-13T16:57:13.868Z,6.78
2023-03-13T17:03:57.637Z,3.65
2023-03-13T17:10:39.970Z,6.55
2023-03-13T17:17:22.948Z,5.40
2023-03-13T17:24:07.439Z,5.15
2023-03-13T17:30:49.798Z,5.82
2023-03-13T17:37:35.123Z,8.93
2023-03-13T17:44:17.473Z,6.28
2023-03-13T17:50:59.865Z,8.00
2023-03-13T17:57:43.626Z,6.85
2023-03-13T18:04:26.090Z,10.05
2023-03-13T18:11:10.790Z,8.15
2023-03-13T18:17:53.383Z,4.88
2023-03-13T18:24:39.058Z,3.75
2023-03-13T18:31:21.479Z,7.78
2023-03-13T18:38:03.907Z,5.03
2023-03-13T18:44:46.417Z,4.22
2023-03-13T18:51:30.810Z,5.20
2023-03-13T18:58:14.200Z,6.03
2023-03-13T19:04:56.619Z,2.95
2023-03-13T19:11:42.396Z,3.65
2023-03-13T19:18:25.005Z,3.40
2023-03-13T19:25:08.087Z,4.40
2023-03-13T19:31:50.805Z,2.83
2023-03-13T19:38:33.381Z,3.10
2023-03-13T19:45:20.352Z,4.50
2023-03-13T19:52:02.831Z,3.55
2023-03-13T19:58:47.362Z,3.38
2023-03-13T20:05:30.198Z,2.30
2023-03-13T20:12:12.572Z,5.07
2023-03-13T20:18:55.818Z,2.38
2023-03-13T20:25:38.113Z,1.63
2023-03-13T20:32:20.647Z,1.58
2023-03-13T20:39:03.569Z,1.98
2023-03-13T20:45:45.903Z,1.00
2023-03-13T20:52:28.888Z,4.07
2023-03-13T20:59:11.377Z,1.15
2023-03-13T21:05:53.829Z,3.03
2023-03-13T21:12:36.369Z,3.85
2023-03-13T21:19:19.002Z,1.30
2023-03-13T21:26:01.325Z,4.85
2023-03-13T21:32:45.316Z,2.58
2023-03-13T21:39:28.306Z,3.92
2023-03-13T21:46:12.415Z,2.67
2023-03-13T21:52:54.728Z,2.15
2023-03-13T21:59:37.062Z,1.17
2023-03-13T22:06:22.500Z,3.05
2023-03-13T22:13:06.181Z,2.10
2023-03-13T22:19:49.282Z,2.22
2023-03-13T22:26:31.572Z,3.20
2023-03-13T22:33:13.933Z,4.32
2023-03-13T22:39:56.325Z,7.18
2023-03-13T22:46:38.606Z,3.65
2023-03-13T22:53:20.886Z,3.90
2023-03-13T23:00:05.467Z,3.60
2023-03-13T23:06:47.806Z,2.42
2023-03-13T23:13:31.577Z,3.65
2023-03-13T23:20:14.132Z,3.83
2023-03-13T23:26:56.482Z,5.20
2023-03-13T23:33:39.190Z,2.75
2023-03-13T23:40:23.117Z,2.47
2023-03-13T23:47:05.460Z,1.13
2023-03-13T23:53:48.192Z,1.30
